Time;durP1;ratioP1;P1;durP2;ratioP2;P2;SDS_P1;SDS_P2;PMS_P1;PMS_P2;Temp;Humidity;BMP_temperature;BMP_pressure;BME280_temperature;BME280_humidity;BME280_pressure;Samples;Min_cycle;Max_cycle;Signal;HPM_P1;HPM_P2
2023/07/28 00:00:49;;;;;;;;;4.00;2.75;;;;;;;;5124972;27;45386;-43
2023/07/28 00:03:14;;;;;;;;;6.50;4.00;;;;;;;;5125333;27;45440;-44
2023/07/28 00:05:40;;;;;;;;;3.75;3.75;;;;;;;;5125304;27;45474;-42
2023/07/28 00:08:05;;;;;;;;;2.00;2.00;;;;;;;;5124981;27;46189;-43
2023/07/28 00:10:30;;;;;;;;;2.50;2.00;;;;;;;;5124896;27;45443;-41
2023/07/28 00:12:56;;;;;;;;;5.75;2.00;;;;;;;;5124997;27;45347;-43
2023/07/28 00:15:21;;;;;;;;;2.75;2.00;;;;;;;;5125045;27;45345;-43
2023/07/28 00:17:46;;;;;;;;;2.00;2.00;;;;;;;;5124692;27;46176;-42
2023/07/28 00:20:11;;;;;;;;;2.25;2.00;;;;;;;;5124849;27;45434;-43
2023/07/28 00:22:37;;;;;;;;;1.75;1.75;;;;;;;;5124874;27;45321;-43
2023/07/28 00:25:02;;;;;;;;;3.00;3.00;;;;;;;;5124937;27;45481;-42
2023/07/28 00:27:27;;;;;;;;;2.75;2.50;;;;;;;;5124718;27;47024;-42
2023/07/28 00:29:53;;;;;;;;;2.00;2.00;;;;;;;;5124466;27;45372;-42
2023/07/28 00:32:18;;;;;;;;;1.50;1.50;;;;;;;;5105956;27;45478;-42
2023/07/28 00:34:43;;;;;;;;;2.50;0.25;;;;;;;;5124414;27;45290;-42
2023/07/28 00:37:08;;;;;;;;;3.00;1.00;;;;;;;;5124372;27;45504;-44
2023/07/28 00:39:34;;;;;;;;;2.00;2.00;;;;;;;;5124490;27;45444;-44
2023/07/28 00:42:00;;;;;;;;;1.80;1.80;;;;;;;;5124526;27;45298;-43
2023/07/28 00:44:25;;;;;;;;;4.50;1.75;;;;;;;;5124696;27;45510;-44
2023/07/28 00:46:50;;;;;;;;;2.50;2.50;;;;;;;;5124444;27;45999;-43
2023/07/28 00:49:16;;;;;;;;;2.75;2.00;;;;;;;;5124392;27;45495;-44
2023/07/28 00:51:41;;;;;;;;;1.25;1.25;;;;;;;;5124696;27;45424;-44
2023/07/28 00:54:06;;;;;;;;;1.00;1.00;;;;;;;;5124774;27;45340;-43
2023/07/28 00:56:31;;;;;;;;;0.50;0.50;;;;;;;;5123556;27;46359;-45
2023/07/28 00:58:57;;;;;;;;;1.50;1.50;;;;;;;;5124252;27;45246;-45
2023/07/28 01:01:22;;;;;;;;;2.00;2.00;;;;;;;;5124375;27;45240;-43
2023/07/28 01:03:48;;;;;;;;;1.00;1.00;;;;;;;;5124797;27;45484;-44
2023/07/28 01:06:16;;;;;;;;;1.25;1.00;;;;;;;;5121889;27;45962;-44
2023/07/28 01:08:46;;;;;;;;;2.00;1.60;;;;;;;;5121016;27;45239;-43
2023/07/28 01:11:11;;;;;;;;;3.60;2.40;;;;;;;;5120960;27;45242;-44
2023/07/28 01:13:37;;;;;;;;;2.00;2.00;;;;;;;;5121075;27;45237;-44
2023/07/28 01:16:02;;;;;;;;;3.00;2.00;;;;;;;;5120692;27;45357;-42
2023/07/28 01:18:28;;;;;;;;;4.50;2.50;;;;;;;;5120682;27;45297;-42
2023/07/28 01:20:56;;;;;;;;;2.00;2.00;;;;;;;;5120817;27;45348;-41
2023/07/28 01:23:29;;;;;;;;;1.00;1.00;;;;;;;;5120916;27;45300;-41
2023/07/28 01:26:11;;;;;;;;;2.20;2.00;;;;;;;;5120405;27;45257;-42
2023/07/28 01:28:36;;;;;;;;;3.60;2.60;;;;;;;;5120457;27;45366;-43
2023/07/28 01:31:02;;;;;;;;;2.00;2.00;;;;;;;;5120538;27;45504;-43
2023/07/28 01:33:28;;;;;;;;;1.50;1.50;;;;;;;;5089262;27;45254;-41
2023/07/28 01:35:53;;;;;;;;;2.00;2.00;;;;;;;;5099237;27;46398;-41
2023/07/28 01:38:18;;;;;;;;;3.00;1.00;;;;;;;;5099682;27;45370;-41
2023/07/28 01:40:43;;;;;;;;;1.00;1.00;;;;;;;;5099802;27;45421;-42
2023/07/28 01:43:08;;;;;;;;;2.00;2.00;;;;;;;;5100143;27;45300;-42
2023/07/28 01:45:34;;;;;;;;;2.00;2.00;;;;;;;;5099269;27;46001;-43
2023/07/28 01:47:59;;;;;;;;;3.25;2.75;;;;;;;;5097518;27;45433;-43
2023/07/28 01:50:24;;;;;;;;;3.00;3.00;;;;;;;;5099797;27;45318;-43
2023/07/28 01:52:49;;;;;;;;;1.75;1.75;;;;;;;;5099939;27;45364;-42
2023/07/28 01:55:15;;;;;;;;;2.75;1.00;;;;;;;;5099471;27;46415;-43
2023/07/28 01:57:40;;;;;;;;;1.00;1.00;;;;;;;;5080678;27;45461;-41
2023/07/28 02:00:06;;;;;;;;;0.75;0.75;;;;;;;;5099336;27;45356;-42
2023/07/28 02:02:31;;;;;;;;;1.00;1.00;;;;;;;;5099575;27;45400;-41
2023/07/28 02:04:56;;;;;;;;;0.75;0.75;;;;;;;;5099233;27;46228;-42
2023/07/28 02:07:21;;;;;;;;;3.25;2.00;;;;;;;;5099266;27;45385;-42
2023/07/28 02:09:46;;;;;;;;;0.00;0.00;;;;;;;;5099451;27;45397;-42
2023/07/28 02:12:11;;;;;;;;;3.75;1.75;;;;;;;;5064137;27;45333;-42
2023/07/28 02:14:37;;;;;;;;;1.00;1.00;;;;;;;;5099183;27;45417;-41
2023/07/28 02:17:02;;;;;;;;;3.00;1.50;;;;;;;;5098160;27;45511;-43
2023/07/28 02:19:27;;;;;;;;;2.00;1.00;;;;;;;;5098900;27;45326;-43
2023/07/28 02:21:52;;;;;;;;;0.75;0.25;;;;;;;;5099269;27;45519;-47
2023/07/28 02:24:17;;;;;;;;;1.75;1.75;;;;;;;;5099035;27;46094;-43
2023/07/28 02:26:43;;;;;;;;;2.25;1.00;;;;;;;;5098924;27;45508;-42
2023/07/28 02:29:08;;;;;;;;;0.75;0.75;;;;;;;;5098984;27;45283;-43
2023/07/28 02:31:33;;;;;;;;;0.50;0.50;;;;;;;;5099106;27;45446;-43
2023/07/28 02:33:58;;;;;;;;;2.00;0.75;;;;;;;;5080043;27;46727;-43
2023/07/28 02:36:24;;;;;;;;;2.50;1.00;;;;;;;;5098872;27;45385;-48
2023/07/28 02:38:49;;;;;;;;;1.50;1.00;;;;;;;;5099376;27;45330;-44
2023/07/28 02:41:14;;;;;;;;;0.75;0.75;;;;;;;;5099373;27;45435;-42
2023/07/28 02:43:39;;;;;;;;;2.00;2.00;;;;;;;;5098777;27;47037;-44
2023/07/28 02:46:04;;;;;;;;;1.00;1.00;;;;;;;;5098862;27;45456;-44
2023/07/28 02:48:30;;;;;;;;;0.25;0.25;;;;;;;;5099217;27;45263;-50
2023/07/28 02:50:55;;;;;;;;;0.00;0.00;;;;;;;;5099294;27;45317;-43
2023/07/28 02:53:20;;;;;;;;;1.50;1.50;;;;;;;;5097440;27;46455;-43
2023/07/28 02:55:46;;;;;;;;;2.00;0.50;;;;;;;;5098528;27;45203;-44
2023/07/28 02:58:12;;;;;;;;;2.20;0.60;;;;;;;;5098562;27;45235;-43
2023/07/28 03:00:41;;;;;;;;;2.00;0.75;;;;;;;;5098857;27;45383;-42
2023/07/28 03:03:07;;;;;;;;;1.00;1.00;;;;;;;;5098423;27;47034;-44
2023/07/28 03:05:32;;;;;;;;;2.50;1.00;;;;;;;;5098569;27;45468;-45
2023/07/28 03:07:57;;;;;;;;;1.50;1.00;;;;;;;;5098498;27;45448;-41
2023/07/28 03:10:22;;;;;;;;;1.00;1.00;;;;;;;;5098558;27;45329;-43
2023/07/28 03:12:48;;;;;;;;;3.00;1.00;;;;;;;;5098337;27;46307;-42
2023/07/28 03:15:13;;;;;;;;;2.00;1.00;;;;;;;;5097986;27;45614;-43
2023/07/28 03:17:38;;;;;;;;;0.50;0.50;;;;;;;;5097291;27;45436;-43
2023/07/28 03:20:03;;;;;;;;;3.00;2.00;;;;;;;;5098535;27;45352;-43
2023/07/28 03:22:30;;;;;;;;;1.50;1.25;;;;;;;;5098161;27;46377;-41
2023/07/28 03:24:55;;;;;;;;;2.00;1.00;;;;;;;;5098079;27;45418;-41
2023/07/28 03:27:20;;;;;;;;;1.75;1.00;;;;;;;;5098110;27;45424;-43
2023/07/28 03:29:45;;;;;;;;;2.50;1.00;;;;;;;;5097347;27;45346;-43
2023/07/28 03:32:11;;;;;;;;;1.75;1.75;;;;;;;;5099682;27;45338;-42
2023/07/28 03:34:36;;;;;;;;;2.50;2.50;;;;;;;;5118729;27;45365;-42
2023/07/28 03:37:01;;;;;;;;;1.50;1.50;;;;;;;;5118624;27;45440;-44
2023/07/28 03:39:26;;;;;;;;;2.25;1.00;;;;;;;;5118705;27;45393;-41
2023/07/28 03:41:51;;;;;;;;;2.00;2.00;;;;;;;;5118447;27;46178;-42
2023/07/28 03:44:19;;;;;;;;;2.50;1.75;;;;;;;;5118483;27;45366;-43
2023/07/28 03:46:44;;;;;;;;;1.00;1.00;;;;;;;;5117627;27;45327;-41
2023/07/28 03:49:09;;;;;;;;;2.75;2.75;;;;;;;;5118478;27;45449;-41
2023/07/28 03:51:35;;;;;;;;;1.50;1.50;;;;;;;;5118307;27;47213;-41
2023/07/28 03:54:00;;;;;;;;;1.50;1.00;;;;;;;;5099705;27;45263;-42
2023/07/28 03:56:25;;;;;;;;;1.25;1.25;;;;;;;;5118518;27;45217;-43
2023/07/28 03:58:50;;;;;;;;;3.00;1.00;;;;;;;;5118511;27;45437;-42
2023/07/28 04:01:15;;;;;;;;;2.00;2.00;;;;;;;;5117962;27;45274;-44
2023/07/28 04:03:41;;;;;;;;;3.00;2.00;;;;;;;;5118119;27;45377;-43
2023/07/28 04:06:10;;;;;;;;;3.00;3.00;;;;;;;;5118356;27;45305;-41
2023/07/28 04:08:35;;;;;;;;;1.80;1.80;;;;;;;;5118504;27;45318;-42
2023/07/28 04:11:00;;;;;;;;;1.00;1.00;;;;;;;;5099298;27;47695;-42
2023/07/28 04:13:25;;;;;;;;;1.75;1.75;;;;;;;;5118124;27;45175;-43
2023/07/28 04:15:50;;;;;;;;;1.00;1.00;;;;;;;;5118037;27;45230;-42
2023/07/28 04:18:17;;;;;;;;;1.00;1.00;;;;;;;;5118332;27;45350;-42
2023/07/28 04:20:43;;;;;;;;;1.00;1.00;;;;;;;;5117736;27;46982;-42
2023/07/28 04:23:08;;;;;;;;;1.75;1.75;;;;;;;;5117866;27;45306;-42
2023/07/28 04:25:33;;;;;;;;;2.00;1.00;;;;;;;;5117629;27;45353;-43
2023/07/28 04:27:58;;;;;;;;;3.00;1.00;;;;;;;;5118085;27;45223;-41
2023/07/28 04:30:23;;;;;;;;;0.50;0.50;;;;;;;;5116392;27;46555;-43
2023/07/28 04:32:48;;;;;;;;;1.00;1.00;;;;;;;;5091955;27;45458;-41
2023/07/28 04:35:14;;;;;;;;;1.00;1.00;;;;;;;;5097355;27;45208;-43
2023/07/28 04:37:39;;;;;;;;;3.50;1.00;;;;;;;;5097595;27;45345;-42
2023/07/28 04:40:04;;;;;;;;;2.50;2.50;;;;;;;;5096957;27;46110;-44
2023/07/28 04:42:30;;;;;;;;;2.00;2.00;;;;;;;;5100776;27;45482;-43
2023/07/28 04:44:55;;;;;;;;;1.00;1.00;;;;;;;;5101225;27;45271;-45
2023/07/28 04:47:20;;;;;;;;;2.75;2.75;;;;;;;;5100925;27;45434;-44
2023/07/28 04:49:45;;;;;;;;;2.75;1.00;;;;;;;;5100630;27;46156;-43
2023/07/28 04:52:11;;;;;;;;;2.00;2.00;;;;;;;;5100486;27;45397;-43
2023/07/28 04:54:36;;;;;;;;;1.25;1.25;;;;;;;;5100790;27;45338;-42
2023/07/28 04:57:01;;;;;;;;;2.75;1.00;;;;;;;;5100777;27;45361;-43
2023/07/28 04:59:26;;;;;;;;;2.75;1.00;;;;;;;;5100213;27;45425;-43
2023/07/28 05:01:51;;;;;;;;;3.00;1.00;;;;;;;;5100296;27;45450;-42
2023/07/28 05:04:17;;;;;;;;;0.50;0.50;;;;;;;;5100395;27;45295;-41
2023/07/28 05:06:42;;;;;;;;;3.25;1.00;;;;;;;;5100623;27;45220;-42
2023/07/28 05:09:07;;;;;;;;;2.75;1.25;;;;;;;;5100051;27;45398;-42
2023/07/28 05:11:32;;;;;;;;;0.00;0.00;;;;;;;;5100268;27;45556;-44
2023/07/28 05:13:57;;;;;;;;;2.75;1.00;;;;;;;;5100487;27;45459;-43
2023/07/28 05:16:23;;;;;;;;;1.00;1.00;;;;;;;;5100346;27;45252;-43
2023/07/28 05:18:48;;;;;;;;;1.00;1.00;;;;;;;;5100093;27;47264;-44
2023/07/28 05:21:13;;;;;;;;;0.75;0.75;;;;;;;;5100166;27;45310;-43
2023/07/28 05:23:38;;;;;;;;;0.00;0.00;;;;;;;;5100452;27;45244;-42
2023/07/28 05:26:03;;;;;;;;;4.00;1.00;;;;;;;;5082230;27;45552;-43
2023/07/28 05:28:28;;;;;;;;;0.75;0.00;;;;;;;;5099876;27;46136;-42
2023/07/28 05:30:54;;;;;;;;;0.00;0.00;;;;;;;;5100068;27;45382;-43
2023/07/28 05:33:19;;;;;;;;;1.50;0.00;;;;;;;;5110329;27;45310;-43
2023/07/28 05:35:44;;;;;;;;;0.25;0.00;;;;;;;;5102298;27;45218;-42
2023/07/28 05:38:09;;;;;;;;;2.00;1.00;;;;;;;;5120550;27;45354;-44
2023/07/28 05:40:34;;;;;;;;;0.25;0.25;;;;;;;;5118537;27;45325;-42
2023/07/28 05:43:00;;;;;;;;;0.75;0.50;;;;;;;;5120712;27;45299;-44
2023/07/28 05:45:25;;;;;;;;;0.00;0.00;;;;;;;;5120770;27;45244;-43
2023/07/28 05:47:50;;;;;;;;;0.25;0.25;;;;;;;;5120277;27;45361;-43
2023/07/28 05:50:15;;;;;;;;;0.75;0.75;;;;;;;;5120249;27;45420;-42
2023/07/28 05:52:40;;;;;;;;;1.00;1.00;;;;;;;;5119761;27;45418;-44
2023/07/28 05:55:06;;;;;;;;;0.00;0.00;;;;;;;;5120578;27;45520;-43
2023/07/28 05:57:31;;;;;;;;;0.00;0.00;;;;;;;;5120137;27;46279;-42
2023/07/28 05:59:56;;;;;;;;;3.75;3.00;;;;;;;;5120239;27;45338;-43
2023/07/28 06:02:21;;;;;;;;;18.25;16.50;;;;;;;;5120054;27;45461;-42
2023/07/28 06:04:47;;;;;;;;;1.00;1.00;;;;;;;;5120368;27;45213;-42
2023/07/28 06:07:12;;;;;;;;;2.00;0.00;;;;;;;;5120185;27;46042;-43
2023/07/28 06:09:37;;;;;;;;;0.25;0.25;;;;;;;;5120124;27;45357;-44
2023/07/28 06:12:03;;;;;;;;;0.00;0.00;;;;;;;;5120215;27;45237;-42
2023/07/28 06:14:28;;;;;;;;;1.00;1.00;;;;;;;;5120345;27;45488;-43
2023/07/28 06:16:53;;;;;;;;;1.00;1.00;;;;;;;;5119782;27;45406;-41
2023/07/28 06:19:23;;;;;;;;;0.25;0.25;;;;;;;;5117857;27;45409;-44
2023/07/28 06:21:49;;;;;;;;;2.80;1.80;;;;;;;;5119896;27;45500;-42
2023/07/28 06:24:14;;;;;;;;;4.00;2.75;;;;;;;;5120098;27;45531;-42
2023/07/28 06:26:39;;;;;;;;;3.00;1.00;;;;;;;;5119563;27;45486;-42
2023/07/28 06:29:05;;;;;;;;;2.50;1.00;;;;;;;;5119761;27;45331;-43
2023/07/28 06:31:30;;;;;;;;;1.75;1.75;;;;;;;;5119639;27;45572;-41
2023/07/28 06:33:56;;;;;;;;;3.75;2.00;;;;;;;;5119544;27;45327;-42
2023/07/28 06:36:21;;;;;;;;;1.50;1.50;;;;;;;;5119504;27;45363;-41
2023/07/28 06:38:48;;;;;;;;;1.75;1.75;;;;;;;;5119400;27;45221;-43
2023/07/28 06:41:13;;;;;;;;;1.00;1.00;;;;;;;;5119546;27;45339;-41
2023/07/28 06:43:38;;;;;;;;;1.25;1.25;;;;;;;;5119720;27;45415;-43
2023/07/28 06:46:04;;;;;;;;;2.00;1.25;;;;;;;;5119277;27;46227;-43
2023/07/28 06:48:29;;;;;;;;;1.25;1.25;;;;;;;;5119282;27;45450;-43
2023/07/28 06:50:54;;;;;;;;;1.00;1.00;;;;;;;;5119461;27;45440;-42
2023/07/28 06:53:20;;;;;;;;;2.50;1.00;;;;;;;;5119527;27;45397;-42
2023/07/28 06:55:45;;;;;;;;;1.00;1.00;;;;;;;;5119411;27;46293;-43
2023/07/28 06:58:10;;;;;;;;;2.00;0.00;;;;;;;;5119327;27;45361;-43
2023/07/28 07:00:35;;;;;;;;;2.00;2.00;;;;;;;;5119385;27;45357;-43
2023/07/28 07:03:01;;;;;;;;;2.00;2.00;;;;;;;;5119454;27;45397;-42
2023/07/28 07:05:26;;;;;;;;;2.00;2.00;;;;;;;;5117967;27;46212;-41
2023/07/28 07:07:52;;;;;;;;;1.00;1.00;;;;;;;;5119362;27;45431;-42
2023/07/28 07:10:17;;;;;;;;;3.00;2.00;;;;;;;;5119160;27;45336;-43
2023/07/28 07:12:43;;;;;;;;;3.00;3.00;;;;;;;;5119364;27;45472;-44
2023/07/28 07:15:08;;;;;;;;;1.00;1.00;;;;;;;;5118837;27;46294;-41
2023/07/28 07:17:33;;;;;;;;;2.00;2.00;;;;;;;;5118673;27;45343;-42
2023/07/28 07:19:59;;;;;;;;;3.75;2.00;;;;;;;;5119080;27;45310;-43
2023/07/28 07:22:24;;;;;;;;;1.00;1.00;;;;;;;;5119215;27;45325;-42
2023/07/28 07:24:49;;;;;;;;;1.25;1.25;;;;;;;;5118834;27;46173;-43
2023/07/28 07:27:14;;;;;;;;;2.25;2.25;;;;;;;;5118777;27;45273;-42
2023/07/28 07:29:40;;;;;;;;;1.00;1.00;;;;;;;;5118875;27;45302;-41
2023/07/28 07:32:06;;;;;;;;;2.50;2.00;;;;;;;;5118611;27;45227;-43
2023/07/28 07:34:31;;;;;;;;;2.20;2.20;;;;;;;;5118452;27;45297;-41
2023/07/28 07:36:57;;;;;;;;;1.00;1.00;;;;;;;;5118594;27;45408;-42
2023/07/28 07:39:22;;;;;;;;;3.25;1.00;;;;;;;;5118446;27;45269;-42
2023/07/28 07:41:47;;;;;;;;;0.50;0.50;;;;;;;;5118936;27;45352;-41
2023/07/28 07:44:12;;;;;;;;;2.00;2.00;;;;;;;;5118342;27;45969;-44
2023/07/28 07:46:37;;;;;;;;;2.25;2.00;;;;;;;;5118501;27;45307;-43
2023/07/28 07:49:05;;;;;;;;;2.25;1.00;;;;;;;;5118517;27;45326;-43
2023/07/28 07:51:30;;;;;;;;;0.60;0.60;;;;;;;;5118840;27;45226;-42
2023/07/28 07:53:55;;;;;;;;;1.00;1.00;;;;;;;;5118389;27;46297;-43
2023/07/28 07:56:21;;;;;;;;;0.25;0.25;;;;;;;;5118437;27;45292;-43
2023/07/28 07:58:46;;;;;;;;;1.00;1.00;;;;;;;;5117620;27;45720;-43
2023/07/28 08:01:11;;;;;;;;;3.00;1.75;;;;;;;;5118539;27;45408;-42
2023/07/28 08:03:37;;;;;;;;;1.00;1.00;;;;;;;;5117989;27;46202;-42
2023/07/28 08:06:03;;;;;;;;;0.60;0.60;;;;;;;;5118148;27;45366;-43
2023/07/28 08:08:29;;;;;;;;;0.60;0.60;;;;;;;;5118660;27;45313;-42
2023/07/28 08:10:55;;;;;;;;;0.00;0.00;;;;;;;;5118461;27;45276;-44
2023/07/28 08:13:20;;;;;;;;;0.00;0.00;;;;;;;;5118260;27;45693;-43
2023/07/28 08:15:46;;;;;;;;;1.00;1.00;;;;;;;;5119000;27;45325;-43
2023/07/28 08:18:12;;;;;;;;;1.00;1.00;;;;;;;;5121805;27;45318;-42
2023/07/28 08:20:37;;;;;;;;;4.00;0.50;;;;;;;;5121824;27;45509;-42
2023/07/28 08:23:02;;;;;;;;;0.00;0.00;;;;;;;;5121684;27;46254;-42
2023/07/28 08:25:27;;;;;;;;;0.00;0.00;;;;;;;;5121850;27;45226;-42
2023/07/28 08:27:52;;;;;;;;;0.50;0.50;;;;;;;;5121811;27;45401;-43
2023/07/28 08:30:18;;;;;;;;;0.00;0.00;;;;;;;;5121949;27;45307;-42
2023/07/28 08:32:43;;;;;;;;;0.00;0.00;;;;;;;;5121298;27;46263;-42
2023/07/28 08:35:09;;;;;;;;;0.00;0.00;;;;;;;;5121578;27;45209;-43
2023/07/28 08:37:34;;;;;;;;;0.00;0.00;;;;;;;;5121715;27;45312;-43
2023/07/28 08:39:59;;;;;;;;;0.00;0.00;;;;;;;;5121760;27;45435;-44
2023/07/28 08:42:24;;;;;;;;;0.00;0.00;;;;;;;;5121394;27;46367;-42
2023/07/28 08:44:52;;;;;;;;;0.25;0.25;;;;;;;;5121400;27;45365;-43
2023/07/28 08:47:17;;;;;;;;;0.00;0.00;;;;;;;;5121277;27;45422;-44
2023/07/28 08:49:42;;;;;;;;;1.00;1.00;;;;;;;;5121619;27;45291;-43
2023/07/28 08:52:08;;;;;;;;;1.00;1.00;;;;;;;;5121129;27;46004;-43
2023/07/28 08:54:33;;;;;;;;;1.00;1.00;;;;;;;;5121267;27;45554;-42
2023/07/28 08:56:58;;;;;;;;;3.00;1.00;;;;;;;;5121353;27;45422;-43
2023/07/28 08:59:25;;;;;;;;;1.25;0.75;;;;;;;;5121313;27;45412;-43
2023/07/28 09:01:51;;;;;;;;;0.00;0.00;;;;;;;;5121096;27;45360;-43
2023/07/28 09:04:16;;;;;;;;;1.00;1.00;;;;;;;;5120994;27;45479;-45
2023/07/28 09:06:45;;;;;;;;;0.00;0.00;;;;;;;;5121197;27;45383;-44
2023/07/28 09:09:10;;;;;;;;;0.00;0.00;;;;;;;;5121268;27;45195;-44
2023/07/28 09:11:43;;;;;;;;;2.50;0.00;;;;;;;;5120812;27;45397;-43
2023/07/28 09:14:11;;;;;;;;;1.00;1.00;;;;;;;;5121006;27;45373;-43
2023/07/28 09:16:36;;;;;;;;;1.60;1.60;;;;;;;;5121008;27;45294;-43
2023/07/28 09:19:08;;;;;;;;;0.00;0.00;;;;;;;;5120858;27;45320;-43
2023/07/28 09:21:33;;;;;;;;;1.00;1.00;;;;;;;;5120711;27;46101;-42
2023/07/28 09:24:06;;;;;;;;;1.25;0.50;;;;;;;;5120714;27;45428;-43
2023/07/28 09:26:38;;;;;;;;;3.40;3.00;;;;;;;;5120694;27;45440;-43
2023/07/28 09:29:10;;;;;;;;;3.00;1.00;;;;;;;;5119974;27;45436;-43
2023/07/28 09:31:36;;;;;;;;;0.00;0.00;;;;;;;;5120427;27;46381;-45
2023/07/28 09:34:01;;;;;;;;;0.00;0.00;;;;;;;;5117941;27;45432;-44
2023/07/28 09:36:26;;;;;;;;;0.25;0.25;;;;;;;;5121013;27;45290;-43
2023/07/28 09:38:53;;;;;;;;;1.50;0.50;;;;;;;;5120679;27;45321;-43
2023/07/28 09:41:20;;;;;;;;;1.00;1.00;;;;;;;;5120426;27;46081;-42
2023/07/28 09:43:48;;;;;;;;;0.80;0.80;;;;;;;;5119748;27;45393;-43
2023/07/28 09:46:17;;;;;;;;;0.00;0.00;;;;;;;;5119694;27;45189;-43
2023/07/28 09:48:44;;;;;;;;;2.80;1.00;;;;;;;;5120679;27;45361;-43
2023/07/28 09:51:16;;;;;;;;;3.00;1.60;;;;;;;;5120137;27;47235;-41
2023/07/28 09:53:46;;;;;;;;;0.60;0.60;;;;;;;;5120429;27;45328;-41
2023/07/28 09:56:15;;;;;;;;;1.60;1.00;;;;;;;;5120387;27;45393;-44
2023/07/28 09:58:41;;;;;;;;;1.00;1.00;;;;;;;;5120550;27;45228;-48
2023/07/28 10:01:07;;;;;;;;;4.20;2.00;;;;;;;;5120175;27;46369;-42
2023/07/28 10:03:32;;;;;;;;;1.00;1.00;;;;;;;;5120182;27;45559;-42
2023/07/28 10:05:58;;;;;;;;;2.25;2.25;;;;;;;;5120192;27;45538;-43
2023/07/28 10:08:23;;;;;;;;;0.50;0.25;;;;;;;;5120224;27;45298;-41
2023/07/28 10:10:49;;;;;;;;;2.00;2.00;;;;;;;;5119707;27;46137;-42
2023/07/28 10:13:21;;;;;;;;;1.00;1.00;;;;;;;;5118673;27;45356;-41
2023/07/28 10:15:47;;;;;;;;;2.00;1.00;;;;;;;;5119971;27;45253;-43
2023/07/28 10:18:12;;;;;;;;;0.80;0.80;;;;;;;;5120124;27;45480;-43
2023/07/28 10:20:38;;;;;;;;;2.00;2.00;;;;;;;;5119526;27;46135;-42
2023/07/28 10:23:22;;;;;;;;;2.20;2.00;;;;;;;;5119701;27;45345;-43
2023/07/28 10:25:56;;;;;;;;;4.00;1.40;;;;;;;;5119827;27;45459;-44
2023/07/28 10:28:30;;;;;;;;;3.00;3.00;;;;;;;;5119135;27;45242;-43
2023/07/28 10:30:56;;;;;;;;;2.40;1.80;;;;;;;;5119413;27;46988;-44
2023/07/28 10:33:36;;;;;;;;;4.25;3.00;;;;;;;;5119330;27;45428;-43
2023/07/28 10:36:20;;;;;;;;;5.00;3.20;;;;;;;;5119635;27;45430;-42
2023/07/28 10:38:45;;;;;;;;;1.00;1.00;;;;;;;;5119494;27;45437;-43
2023/07/28 10:41:13;;;;;;;;;3.00;2.00;;;;;;;;5119380;27;47101;-42
2023/07/28 10:43:39;;;;;;;;;5.40;3.60;;;;;;;;5119561;27;45227;-43
2023/07/28 10:46:05;;;;;;;;;9.50;7.25;;;;;;;;5119646;27;45217;-43
2023/07/28 10:48:31;;;;;;;;;3.00;3.00;;;;;;;;5119449;27;45394;-41
2023/07/28 10:50:56;;;;;;;;;4.00;3.00;;;;;;;;5119432;27;46482;-43
2023/07/28 10:53:21;;;;;;;;;3.00;2.75;;;;;;;;5119299;27;45229;-43
2023/07/28 10:55:47;;;;;;;;;5.25;2.00;;;;;;;;5119467;27;45249;-43
2023/07/28 10:58:12;;;;;;;;;4.25;2.75;;;;;;;;5119472;27;45367;-42
2023/07/28 11:00:37;;;;;;;;;5.00;3.75;;;;;;;;5118929;27;45438;-42
2023/07/28 11:03:02;;;;;;;;;3.75;3.75;;;;;;;;5119082;27;45429;-42
2023/07/28 11:05:29;;;;;;;;;4.75;4.75;;;;;;;;5119206;27;45295;-44
2023/07/28 11:07:55;;;;;;;;;7.40;4.80;;;;;;;;5119504;27;45330;-43
2023/07/28 11:10:20;;;;;;;;;6.00;3.00;;;;;;;;5118897;27;45388;-43
2023/07/28 11:12:47;;;;;;;;;12.75;10.25;;;;;;;;5119170;27;45487;-41
2023/07/28 11:15:13;;;;;;;;;7.00;6.00;;;;;;;;5119243;27;45218;-43
2023/07/28 11:17:39;;;;;;;;;7.60;7.60;;;;;;;;5119266;27;45453;-42
2023/07/28 11:20:15;;;;;;;;;5.40;4.00;;;;;;;;5118498;27;46204;-43
2023/07/28 11:22:41;;;;;;;;;6.60;4.80;;;;;;;;5118836;27;45373;-43
2023/07/28 11:25:09;;;;;;;;;7.75;4.75;;;;;;;;5119014;27;45355;-42
2023/07/28 11:27:35;;;;;;;;;9.80;4.20;;;;;;;;5119186;27;45366;-42
2023/07/28 11:30:01;;;;;;;;;3.50;3.25;;;;;;;;5118680;27;46482;-42
2023/07/28 11:32:26;;;;;;;;;2.00;0.50;;;;;;;;5118277;27;45504;-43
2023/07/28 11:34:51;;;;;;;;;5.50;4.00;;;;;;;;5118830;27;45379;-42
2023/07/28 11:37:18;;;;;;;;;2.00;2.00;;;;;;;;5118918;27;45342;-44
2023/07/28 11:39:43;;;;;;;;;2.40;2.00;;;;;;;;5118525;27;47096;-43
2023/07/28 11:42:09;;;;;;;;;1.75;1.75;;;;;;;;5100111;27;45283;-41
2023/07/28 11:44:35;;;;;;;;;3.50;3.25;;;;;;;;5118637;27;45314;-43
2023/07/28 11:47:04;;;;;;;;;4.00;2.00;;;;;;;;5118877;27;45396;-43
2023/07/28 11:49:29;;;;;;;;;2.80;2.80;;;;;;;;5118244;27;46084;-42
2023/07/28 11:51:55;;;;;;;;;4.25;3.00;;;;;;;;5117539;27;45256;-42
2023/07/28 11:54:24;;;;;;;;;1.00;1.00;;;;;;;;5117742;27;45371;-42
2023/07/28 11:56:51;;;;;;;;;1.80;1.80;;;;;;;;5118486;27;45346;-44
2023/07/28 11:59:17;;;;;;;;;1.00;1.00;;;;;;;;5118044;27;46520;-43
2023/07/28 12:01:53;;;;;;;;;1.60;1.60;;;;;;;;5118122;27;45477;-46
2023/07/28 12:04:21;;;;;;;;;2.20;2.20;;;;;;;;5118043;27;45539;-43
2023/07/28 12:07:06;;;;;;;;;3.20;3.20;;;;;;;;5118396;27;45338;-44
2023/07/28 12:09:54;;;;;;;;;1.00;1.00;;;;;;;;5118187;27;45469;-43
2023/07/28 12:12:20;;;;;;;;;1.60;1.60;;;;;;;;5118091;27;45308;-44
2023/07/28 12:14:48;;;;;;;;;2.40;1.00;;;;;;;;5116855;27;45156;-43
2023/07/28 12:17:20;;;;;;;;;2.00;2.00;;;;;;;;5118255;27;45381;-42
2023/07/28 12:20:14;;;;;;;;;2.40;2.40;;;;;;;;5117724;27;46341;-42
2023/07/28 12:22:40;;;;;;;;;1.60;1.60;;;;;;;;5014506;28;45864;-44
2023/07/28 12:25:06;;;;;;;;;0.40;0.40;;;;;;;;5014697;28;45309;-44
2023/07/28 12:27:31;;;;;;;;;2.75;2.75;;;;;;;;5014669;28;45439;-43
2023/07/28 12:29:56;;;;;;;;;4.25;2.75;;;;;;;;5014295;28;46040;-44
2023/07/28 12:32:22;;;;;;;;;3.50;3.00;;;;;;;;5014139;28;45317;-43
2023/07/28 12:34:48;;;;;;;;;4.00;4.00;;;;;;;;5014571;28;45381;-43
2023/07/28 12:37:13;;;;;;;;;4.40;4.40;;;;;;;;5014666;28;45375;-43
2023/07/28 12:39:39;;;;;;;;;2.50;2.50;;;;;;;;5014160;28;46211;-42
2023/07/28 12:42:05;;;;;;;;;3.25;3.00;;;;;;;;5014650;28;45352;-43
2023/07/28 12:44:30;;;;;;;;;2.00;2.00;;;;;;;;5014598;28;45452;-43
2023/07/28 12:46:55;;;;;;;;;2.25;1.25;;;;;;;;5014701;28;45486;-44
2023/07/28 12:49:21;;;;;;;;;4.50;2.75;;;;;;;;5014541;28;45521;-43
2023/07/28 12:51:46;;;;;;;;;1.00;1.00;;;;;;;;5014131;28;45630;-43
2023/07/28 12:54:11;;;;;;;;;0.25;0.25;;;;;;;;5014238;28;45459;-44
2023/07/28 12:56:36;;;;;;;;;1.50;0.75;;;;;;;;5014560;28;45481;-41
2023/07/28 12:59:02;;;;;;;;;2.00;0.75;;;;;;;;5064984;27;45510;-42
2023/07/28 13:01:27;;;;;;;;;0.75;0.75;;;;;;;;5117710;27;45562;-45
2023/07/28 13:03:53;;;;;;;;;0.75;0.75;;;;;;;;5121080;27;45425;-42
2023/07/28 13:06:19;;;;;;;;;0.00;0.00;;;;;;;;5121390;27;45452;-43
2023/07/28 13:08:44;;;;;;;;;3.00;1.00;;;;;;;;5120853;27;45427;-44
2023/07/28 13:11:09;;;;;;;;;0.00;0.00;;;;;;;;5121263;27;45312;-44
2023/07/28 13:13:34;;;;;;;;;2.00;0.00;;;;;;;;5121126;27;45200;-51
2023/07/28 13:16:00;;;;;;;;;1.00;1.00;;;;;;;;5121406;27;45331;-43
2023/07/28 13:18:25;;;;;;;;;0.25;0.25;;;;;;;;5120923;27;45992;-43
2023/07/28 13:20:51;;;;;;;;;1.25;1.25;;;;;;;;5120623;27;45184;-42
2023/07/28 13:23:16;;;;;;;;;0.75;0.75;;;;;;;;5121242;27;45209;-44
2023/07/28 13:25:41;;;;;;;;;0.00;0.00;;;;;;;;5121132;27;45168;-46
2023/07/28 13:28:06;;;;;;;;;0.75;0.75;;;;;;;;5102306;27;47839;-44
2023/07/28 13:30:31;;;;;;;;;1.00;1.00;;;;;;;;5120820;27;45347;-42
2023/07/28 13:32:57;;;;;;;;;1.75;1.75;;;;;;;;5120588;27;45576;-43
2023/07/28 13:35:22;;;;;;;;;1.00;1.00;;;;;;;;5120757;27;45468;-42
2023/07/28 13:37:47;;;;;;;;;2.00;1.00;;;;;;;;5120320;27;47129;-42
2023/07/28 13:40:13;;;;;;;;;1.75;1.25;;;;;;;;5120452;27;45467;-43
2023/07/28 13:42:38;;;;;;;;;2.00;2.00;;;;;;;;5120678;27;45512;-44
2023/07/28 13:45:03;;;;;;;;;1.75;1.00;;;;;;;;5120495;27;45485;-42
2023/07/28 13:47:28;;;;;;;;;4.00;2.00;;;;;;;;5120134;27;46895;-44
2023/07/28 13:49:54;;;;;;;;;2.75;2.00;;;;;;;;5120176;27;45449;-43
2023/07/28 13:52:19;;;;;;;;;1.00;1.00;;;;;;;;5120520;27;45315;-44
2023/07/28 13:54:44;;;;;;;;;2.00;1.75;;;;;;;;5120633;27;45330;-44
2023/07/28 13:57:10;;;;;;;;;0.00;0.00;;;;;;;;5120109;27;46257;-43
2023/07/28 13:59:35;;;;;;;;;1.00;1.00;;;;;;;;5120170;27;45342;-43
2023/07/28 14:02:00;;;;;;;;;1.00;1.00;;;;;;;;5120442;27;45289;-43
2023/07/28 14:04:25;;;;;;;;;0.75;0.75;;;;;;;;5120309;27;45231;-44
2023/07/28 14:06:50;;;;;;;;;0.25;0.25;;;;;;;;5120063;27;46144;-40
2023/07/28 14:09:16;;;;;;;;;1.00;1.00;;;;;;;;5119893;27;45507;-43
2023/07/28 14:11:41;;;;;;;;;1.25;0.75;;;;;;;;5120172;27;45259;-41
2023/07/28 14:14:06;;;;;;;;;1.00;1.00;;;;;;;;5119513;27;45384;-44
2023/07/28 14:16:31;;;;;;;;;1.00;1.00;;;;;;;;5119780;27;47024;-42
2023/07/28 14:18:57;;;;;;;;;1.00;1.00;;;;;;;;5120131;27;45527;-43
2023/07/28 14:21:22;;;;;;;;;0.50;0.50;;;;;;;;5119912;27;45444;-43
2023/07/28 14:23:47;;;;;;;;;0.75;0.75;;;;;;;;5119955;27;45223;-42
2023/07/28 14:26:12;;;;;;;;;1.00;1.00;;;;;;;;5101220;27;45401;-45
2023/07/28 14:28:37;;;;;;;;;0.75;0.75;;;;;;;;5120030;27;45440;-44
2023/07/28 14:31:03;;;;;;;;;2.75;1.50;;;;;;;;5119765;27;45146;-43
2023/07/28 14:33:28;;;;;;;;;1.00;1.00;;;;;;;;5119707;27;45376;-42
2023/07/28 14:35:53;;;;;;;;;0.75;0.75;;;;;;;;5118943;27;45253;-41